Time;durP1;ratioP1;P1;durP2;ratioP2;P2;SDS_P1;SDS_P2;PMS_P1;PMS_P2;Temp;Humidity;BMP_temperature;BMP_pressure;BME280_temperature;BME280_humidity;BME280_pressure;Samples;Min_cycle;Max_cycle;Signal;HPM_P1;HPM_P2
2023/05/23 00:00:03;;;;;;;;;;;;;;;13.98;92.18;101783.13;5045361;28;1210;-73
2023/05/23 00:02:29;;;;;;;;;;;;;;;13.99;92.64;101786.56;5062423;28;1902;-71
2023/05/23 00:04:57;;;;;;;;;;;;;;;14.01;92.39;101779.47;5035290;28;1266;-72
2023/05/23 00:07:22;;;;;;;;;;;;;;;13.96;92.94;101781.63;5061731;28;1446;-71
2023/05/23 00:09:47;;;;;;;;;;;;;;;13.97;92.64;101789.31;5064879;28;1415;-72
2023/05/23 00:12:13;;;;;;;;;;;;;;;13.95;92.37;101777.34;5045984;28;1296;-71
2023/05/23 00:14:39;;;;;;;;;;;;;;;13.94;92.73;101780.94;5065422;28;1224;-71
2023/05/23 00:17:04;;;;;;;;;;;;;;;13.88;92.60;101784.00;5064589;28;1555;-73
2023/05/23 00:19:30;;;;;;;;;;;;;;;13.87;93.12;101790.16;5053849;28;1502;-72
2023/05/23 00:21:55;;;;;;;;;;;;;;;13.85;92.75;101784.25;5053446;28;1584;-72
2023/05/23 00:24:21;;;;;;;;;;;;;;;13.85;92.87;101784.25;5060198;28;1955;-72
2023/05/23 00:26:46;;;;;;;;;;;;;;;13.84;92.80;101790.44;5047348;28;1363;-72
2023/05/23 00:29:17;;;;;;;;;;;;;;;13.86;92.50;101785.91;5068951;28;1124;-71
2023/05/23 00:31:45;;;;;;;;;;;;;;;13.86;92.58;101798.94;5063241;28;1283;-71
2023/05/23 00:34:10;;;;;;;;;;;;;;;13.82;92.92;101788.78;5053158;28;1237;-72
2023/05/23 00:36:36;;;;;;;;;;;;;;;13.82;92.85;101796.59;5059903;28;1086;-71
2023/05/23 00:39:03;;;;;;;;;;;;;;;13.79;93.23;101807.25;5063004;28;1202;-72
2023/05/23 00:41:29;;;;;;;;;;;;;;;13.78;93.67;101821.25;5057622;28;1248;-71
2023/05/23 00:43:55;;;;;;;;;;;;;;;13.75;94.09;101816.28;5064890;28;1898;-71
2023/05/23 00:46:20;;;;;;;;;;;;;;;13.73;93.57;101812.97;5062449;28;1205;-73
2023/05/23 00:48:46;;;;;;;;;;;;;;;13.73;94.76;101818.19;5064619;28;1200;-71
2023/05/23 00:51:12;;;;;;;;;;;;;;;13.71;94.46;101814.88;5060946;28;1209;-72
2023/05/23 00:53:37;;;;;;;;;;;;;;;13.63;95.54;101812.03;5061280;28;1308;-71
2023/05/23 00:56:02;;;;;;;;;;;;;;;13.60;95.53;101808.84;5060947;28;1225;-70
2023/05/23 00:58:28;;;;;;;;;;;;;;;13.59;95.63;101805.41;5067413;28;1146;-70
2023/05/23 01:00:54;;;;;;;;;;;;;;;13.59;95.79;101815.84;5058040;28;1096;-69
2023/05/23 01:03:19;;;;;;;;;;;;;;;13.48;96.57;101813.25;5066887;28;1901;-70
2023/05/23 01:05:45;;;;;;;;;;;;;;;13.49;96.31;101820.13;5059418;28;1085;-73
2023/05/23 01:08:10;;;;;;;;;;;;;;;13.50;96.70;101822.59;5064280;28;1086;-73
2023/05/23 01:10:36;;;;;;;;;;;;;;;13.47;96.83;101822.00;5064749;28;1071;-71
2023/05/23 01:13:01;;;;;;;;;;;;;;;13.41;97.14;101822.47;5040042;28;1434;-72
2023/05/23 01:15:29;;;;;;;;;;;;;;;13.37;96.89;101826.28;5043231;28;1448;-70
2023/05/23 01:18:04;;;;;;;;;;;;;;;13.34;97.06;101831.72;5061455;28;1301;-72
2023/05/23 01:20:32;;;;;;;;;;;;;;;13.30;97.08;101825.91;5062616;28;1545;-70
2023/05/23 01:23:01;;;;;;;;;;;;;;;13.26;97.38;101830.53;5065966;28;1923;-71
2023/05/23 01:25:49;;;;;;;;;;;;;;;13.25;97.68;101836.69;5062271;28;1165;-70
2023/05/23 01:28:16;;;;;;;;;;;;;;;13.23;97.10;101833.38;5056156;28;1304;-72
2023/05/23 01:30:43;;;;;;;;;;;;;;;13.24;96.91;101842.00;5048527;28;1310;-71
2023/05/23 01:33:10;;;;;;;;;;;;;;;13.20;96.62;101838.78;5065551;28;1252;-72
2023/05/23 01:35:36;;;;;;;;;;;;;;;13.14;96.69;101836.66;5062304;28;1260;-71
2023/05/23 01:38:01;;;;;;;;;;;;;;;13.05;97.80;101841.72;5042044;28;1294;-71
2023/05/23 01:40:27;;;;;;;;;;;;;;;12.98;98.35;101836.16;5063569;28;1113;-73
2023/05/23 01:42:54;;;;;;;;;;;;;;;12.96;98.59;101846.69;5043600;28;1966;-71
2023/05/23 01:45:19;;;;;;;;;;;;;;;12.95;98.51;101852.81;5064668;28;1312;-73
2023/05/23 01:47:46;;;;;;;;;;;;;;;12.88;98.80;101840.41;5059682;28;1569;-72
2023/05/23 01:50:11;;;;;;;;;;;;;;;12.87;99.06;101855.19;5062842;28;1157;-72
2023/05/23 01:52:38;;;;;;;;;;;;;;;12.84;99.39;101860.63;5066514;28;1260;-71
2023/05/23 01:55:08;;;;;;;;;;;;;;;12.84;99.11;101865.00;5056214;28;1187;-73
2023/05/23 01:57:34;;;;;;;;;;;;;;;12.83;99.26;101847.72;5057483;28;1248;-73
2023/05/23 02:00:00;;;;;;;;;;;;;;;12.85;98.92;101856.25;5041178;28;1465;-71
2023/05/23 02:02:25;;;;;;;;;;;;;;;12.88;98.52;101846.44;5065524;28;1889;-71
2023/05/23 02:04:50;;;;;;;;;;;;;;;12.90;99.04;101854.13;5072211;28;1458;-72
2023/05/23 02:07:15;;;;;;;;;;;;;;;12.93;99.24;101854.72;5067733;28;1254;-72
2023/05/23 02:09:41;;;;;;;;;;;;;;;12.93;98.17;101848.69;5070000;28;1436;-72
2023/05/23 02:12:06;;;;;;;;;;;;;;;12.97;97.88;101856.16;5041847;28;1175;-71
2023/05/23 02:14:32;;;;;;;;;;;;;;;12.99;98.74;101853.44;5048878;28;1672;-72
2023/05/23 02:16:57;;;;;;;;;;;;;;;13.03;97.81;101849.66;5066358;28;1155;-72
2023/05/23 02:19:22;;;;;;;;;;;;;;;13.05;98.47;101852.97;5066246;28;1482;-72
2023/05/23 02:21:47;;;;;;;;;;;;;;;13.08;97.85;101847.53;5063788;28;1222;-70
2023/05/23 02:24:12;;;;;;;;;;;;;;;13.02;97.95;101850.63;5051503;28;1964;-70
2023/05/23 02:26:38;;;;;;;;;;;;;;;13.00;97.79;101852.50;5068101;28;1137;-71
2023/05/23 02:29:03;;;;;;;;;;;;;;;12.96;98.70;101851.06;5063897;28;1182;-71
2023/05/23 02:31:28;;;;;;;;;;;;;;;12.99;98.26;101863.84;5067899;28;1066;-72
2023/05/23 02:33:53;;;;;;;;;;;;;;;13.03;98.07;101847.06;5064837;28;1151;-72
2023/05/23 02:36:19;;;;;;;;;;;;;;;13.01;98.37;101867.16;5067899;28;1321;-71
2023/05/23 02:38:44;;;;;;;;;;;;;;;12.96;99.16;101858.88;5064695;28;1111;-71
2023/05/23 02:41:10;;;;;;;;;;;;;;;12.94;98.59;101858.16;5068975;28;1163;-71
2023/05/23 02:43:35;;;;;;;;;;;;;;;12.94;98.53;101856.38;5066592;28;1901;-70
2023/05/23 02:46:00;;;;;;;;;;;;;;;12.98;98.43;101867.41;5063980;28;1079;-71
2023/05/23 02:48:25;;;;;;;;;;;;;;;12.96;98.58;101864.06;5068243;28;1076;-71
2023/05/23 02:50:51;;;;;;;;;;;;;;;12.94;99.15;101866.78;5067187;28;1164;-73
2023/05/23 02:53:16;;;;;;;;;;;;;;;13.00;98.65;101870.72;5071493;28;1162;-71
2023/05/23 02:55:41;;;;;;;;;;;;;;;12.93;99.10;101874.72;5064096;28;1176;-71
2023/05/23 02:58:07;;;;;;;;;;;;;;;12.86;99.48;101868.34;5067380;28;1269;-71
2023/05/23 03:00:33;;;;;;;;;;;;;;;12.81;100.00;101860.03;5066900;28;1411;-71
2023/05/23 03:02:58;;;;;;;;;;;;;;;12.82;100.00;101869.50;5062643;28;1902;-71
2023/05/23 03:05:23;;;;;;;;;;;;;;;12.80;100.00;101863.59;5066897;28;1363;-72
2023/05/23 03:07:50;;;;;;;;;;;;;;;12.81;99.78;101860.03;5065208;28;1050;-71
2023/05/23 03:10:16;;;;;;;;;;;;;;;12.80;99.58;101868.78;5048776;28;1383;-73
2023/05/23 03:12:42;;;;;;;;;;;;;;;12.79;99.85;101867.09;5047422;28;1302;-71
2023/05/23 03:15:08;;;;;;;;;;;;;;;12.78;99.97;101876.69;5068283;28;1419;-71
2023/05/23 03:17:33;;;;;;;;;;;;;;;12.81;99.70;101870.44;5047393;28;1432;-71
2023/05/23 03:19:58;;;;;;;;;;;;;;;12.76;99.96;101874.22;5067269;28;1314;-73
2023/05/23 03:22:23;;;;;;;;;;;;;;;12.76;99.82;101879.41;5061610;28;1941;-71
2023/05/23 03:24:48;;;;;;;;;;;;;;;12.76;100.00;101873.38;5058501;28;1415;-71
2023/05/23 03:27:14;;;;;;;;;;;;;;;12.82;99.59;101877.31;5063292;28;1234;-71
2023/05/23 03:29:39;;;;;;;;;;;;;;;12.77;99.82;101877.63;5074481;28;1200;-71
2023/05/23 03:32:05;;;;;;;;;;;;;;;12.78;99.60;101876.69;5061075;28;1104;-73
2023/05/23 03:34:31;;;;;;;;;;;;;;;12.79;99.79;101886.19;5040573;28;1558;-71
2023/05/23 03:36:57;;;;;;;;;;;;;;;12.80;99.38;101884.41;5055609;28;1287;-71
2023/05/23 03:39:23;;;;;;;;;;;;;;;12.79;99.78;101882.72;5061755;28;1085;-71
2023/05/23 03:41:48;;;;;;;;;;;;;;;12.77;99.75;101881.06;5062121;28;1134;-72
2023/05/23 03:44:13;;;;;;;;;;;;;;;12.79;99.51;101882.72;5066950;28;1906;-73
2023/05/23 03:46:39;;;;;;;;;;;;;;;12.81;99.59;101880.84;5066983;28;1322;-73
2023/05/23 03:49:04;;;;;;;;;;;;;;;12.81;99.58;101886.06;5063128;28;1249;-72
2023/05/23 03:51:30;;;;;;;;;;;;;;;12.83;99.30;101884.16;5057009;28;1492;-71
2023/05/23 03:53:56;;;;;;;;;;;;;;;12.84;99.48;101885.81;5058610;28;1096;-71
2023/05/23 03:56:21;;;;;;;;;;;;;;;12.87;99.35;101888.22;5067618;28;1177;-71
2023/05/23 03:58:46;;;;;;;;;;;;;;;12.83;99.44;101891.97;5045767;28;1210;-72
2023/05/23 04:01:12;;;;;;;;;;;;;;;12.82;98.93;101892.94;5042295;28;1234;-70
2023/05/23 04:03:37;;;;;;;;;;;;;;;12.85;98.78;101897.91;5041710;28;1969;-71
2023/05/23 04:06:02;;;;;;;;;;;;;;;12.84;98.60;101896.22;5068058;28;1052;-71
2023/05/23 04:08:29;;;;;;;;;;;;;;;12.85;98.66;101903.13;5045105;28;1249;-71
2023/05/23 04:10:54;;;;;;;;;;;;;;;12.84;98.66;101906.66;5063497;28;1262;-70
2023/05/23 04:13:20;;;;;;;;;;;;;;;12.85;98.34;101903.13;5067500;28;1110;-74
2023/05/23 04:15:46;;;;;;;;;;;;;;;12.84;98.71;101901.44;5057413;28;1673;-74
2023/05/23 04:18:12;;;;;;;;;;;;;;;12.82;98.96;101904.16;5063127;28;1760;-71
2023/05/23 04:20:37;;;;;;;;;;;;;;;12.80;98.70;101905.25;5059067;28;1317;-71
2023/05/23 04:23:02;;;;;;;;;;;;;;;12.77;98.72;101911.47;5061431;28;1898;-71
2023/05/23 04:25:27;;;;;;;;;;;;;;;12.79;98.90;101913.97;5047091;28;1420;-71
2023/05/23 04:27:54;;;;;;;;;;;;;;;12.80;98.84;101910.44;5067489;28;1089;-70
2023/05/23 04:30:19;;;;;;;;;;;;;;;12.81;98.17;101927.72;5049384;28;1433;-71
2023/05/23 04:32:45;;;;;;;;;;;;;;;12.73;97.74;101931.72;5067443;28;1044;-70
2023/05/23 04:35:11;;;;;;;;;;;;;;;12.65;98.60;101933.22;5066938;28;1049;-71
2023/05/23 04:37:36;;;;;;;;;;;;;;;12.61;98.38;101932.59;5066596;28;1310;-70
2023/05/23 04:40:02;;;;;;;;;;;;;;;12.48;99.13;101942.22;5066815;28;1272;-71
2023/05/23 04:42:28;;;;;;;;;;;;;;;12.40;99.71;101944.56;5061308;28;1976;-71
2023/05/23 04:44:56;;;;;;;;;;;;;;;12.35;99.99;101936.25;5067834;28;1042;-70
2023/05/23 04:47:23;;;;;;;;;;;;;;;12.36;99.99;101945.72;5066980;28;1107;-72
2023/05/23 04:49:48;;;;;;;;;;;;;;;12.36;99.73;101943.09;5067674;28;1142;-70
2023/05/23 04:52:13;;;;;;;;;;;;;;;12.36;99.47;101943.09;5065887;28;1510;-71
2023/05/23 04:54:43;;;;;;;;;;;;;;;12.35;99.77;101951.84;5061137;28;1252;-71
2023/05/23 04:57:08;;;;;;;;;;;;;;;12.33;99.65;101964.13;5062087;28;1385;-71
2023/05/23 04:59:34;;;;;;;;;;;;;;;12.23;100.00;101958.75;5066320;28;1092;-70
2023/05/23 05:01:59;;;;;;;;;;;;;;;12.21;100.00;101961.47;5068371;28;1360;-70
2023/05/23 05:04:24;;;;;;;;;;;;;;;12.20;99.78;101964.16;5060776;28;1957;-73
2023/05/23 05:06:49;;;;;;;;;;;;;;;12.19;100.00;101972.91;5061415;28;1241;-71
2023/05/23 05:09:15;;;;;;;;;;;;;;;12.18;100.00;101963.44;5048822;28;2211;-71
2023/05/23 05:11:40;;;;;;;;;;;;;;;12.16;100.00;101973.97;5066407;28;1092;-70
2023/05/23 05:14:05;;;;;;;;;;;;;;;12.16;100.00;101973.97;5065449;28;1427;-69
2023/05/23 05:16:30;;;;;;;;;;;;;;;12.19;100.00;101978.94;5048591;28;1408;-70
2023/05/23 05:18:56;;;;;;;;;;;;;;;12.12;100.00;101977.72;5065593;28;1192;-71
2023/05/23 05:21:21;;;;;;;;;;;;;;;12.05;100.00;101981.69;5063421;28;1156;-72
2023/05/23 05:23:46;;;;;;;;;;;;;;;12.07;100.00;101985.00;5040696;28;2020;-71
2023/05/23 05:26:11;;;;;;;;;;;;;;;12.01;99.89;101987.19;5044629;28;1396;-70
2023/05/23 05:28:37;;;;;;;;;;;;;;;12.01;100.00;101998.44;5054145;28;1249;-71
2023/05/23 05:31:03;;;;;;;;;;;;;;;11.98;100.00;101990.81;5064903;28;1125;-70
2023/05/23 05:33:34;;;;;;;;;;;;;;;11.94;100.00;101994.59;5063047;28;1349;-70
2023/05/23 05:36:00;;;;;;;;;;;;;;;11.89;100.00;101988.88;5068251;28;1364;-71
2023/05/23 05:38:25;;;;;;;;;;;;;;;11.88;100.00;101995.03;5058559;28;1347;-70
2023/05/23 05:40:50;;;;;;;;;;;;;;;11.87;100.00;101989.00;5040375;28;1497;-70
2023/05/23 05:43:16;;;;;;;;;;;;;;;11.86;100.00;101996.88;5060108;28;1945;-70
2023/05/23 05:45:41;;;;;;;;;;;;;;;11.88;99.93;102002.81;5051703;28;1195;-70
2023/05/23 05:48:07;;;;;;;;;;;;;;;11.88;99.33;102005.41;5069023;28;1277;-70
2023/05/23 05:50:32;;;;;;;;;;;;;;;11.84;99.91;102019.56;5063346;28;1252;-70
2023/05/23 05:52:57;;;;;;;;;;;;;;;11.77;99.40;102015.69;5057995;28;1573;-74
2023/05/23 05:55:22;;;;;;;;;;;;;;;11.74;99.34;102019.28;5057642;28;1271;-70
2023/05/23 05:57:47;;;;;;;;;;;;;;;11.70;99.97;102018.69;5065516;28;1427;-71
2023/05/23 06:00:17;;;;;;;;;;;;;;;11.65;99.50;102022.53;5055668;28;1581;-71
2023/05/23 06:02:43;;;;;;;;;;;;;;;11.67;98.98;102029.28;5052875;28;1902;-70
2023/05/23 06:05:11;;;;;;;;;;;;;;;11.62;98.92;102031.34;5061071;28;1207;-71
2023/05/23 06:07:36;;;;;;;;;;;;;;;11.61;99.18;102034.88;5047620;28;1603;-73
2023/05/23 06:10:02;;;;;;;;;;;;;;;11.56;98.47;102034.34;5069565;28;1486;-71
2023/05/23 06:12:27;;;;;;;;;;;;;;;11.60;97.51;102043.63;5059857;28;2103;-70
2023/05/23 06:14:53;;;;;;;;;;;;;;;11.52;96.75;102038.09;5062788;28;1201;-70
2023/05/23 06:17:18;;;;;;;;;;;;;;;11.53;96.86;102037.19;5061065;28;1329;-71
2023/05/23 06:19:43;;;;;;;;;;;;;;;11.55;96.92;102050.88;5065508;28;1266;-71
2023/05/23 06:22:08;;;;;;;;;;;;;;;11.54;95.78;102049.22;5066921;28;1123;-72
2023/05/23 06:24:33;;;;;;;;;;;;;;;11.54;95.95;102049.22;5068245;28;1949;-71
2023/05/23 06:26:59;;;;;;;;;;;;;;;11.50;93.92;102055.56;5068201;28;1149;-71
2023/05/23 06:29:24;;;;;;;;;;;;;;;11.48;93.76;102049.63;5061721;28;1186;-72
2023/05/23 06:31:50;;;;;;;;;;;;;;;11.45;92.74;102060.22;5068866;28;1104;-73
2023/05/23 06:34:15;;;;;;;;;;;;;;;11.52;91.71;102056.28;5056799;28;1091;-71
2023/05/23 06:36:41;;;;;;;;;;;;;;;11.49;91.48;102060.84;5069092;28;1134;-71
2023/05/23 06:39:08;;;;;;;;;;;;;;;11.47;91.05;102067.91;5069612;28;1351;-71
2023/05/23 06:41:33;;;;;;;;;;;;;;;11.50;89.80;102068.53;5059676;28;1444;-72
2023/05/23 06:43:59;;;;;;;;;;;;;;;11.51;88.98;102065.00;5065943;28;1910;-71
2023/05/23 06:46:24;;;;;;;;;;;;;;;11.58;89.16;102066.25;5056435;28;1180;-70
2023/05/23 06:48:49;;;;;;;;;;;;;;;11.64;89.45;102076.28;5065608;28;1115;-71
2023/05/23 06:51:14;;;;;;;;;;;;;;;11.74;87.77;102070.44;5070550;28;1386;-70
2023/05/23 06:53:40;;;;;;;;;;;;;;;11.80;87.16;102076.06;5051061;28;1335;-70
2023/05/23 06:56:05;;;;;;;;;;;;;;;11.86;86.49;102085.25;5056060;28;1227;-72
2023/05/23 06:58:30;;;;;;;;;;;;;;;11.85;86.69;102073.19;5067130;28;1185;-70
2023/05/23 07:00:55;;;;;;;;;;;;;;;11.85;85.61;102079.22;5047406;28;1224;-70
2023/05/23 07:03:21;;;;;;;;;;;;;;;11.85;85.56;102088.78;5044821;28;1898;-72
2023/05/23 07:05:46;;;;;;;;;;;;;;;11.89;83.92;102103.25;5062794;28;1229;-71
2023/05/23 07:08:11;;;;;;;;;;;;;;;11.91;85.67;102088.38;5060219;28;1304;-70
2023/05/23 07:10:40;;;;;;;;;;;;;;;11.99;85.21;102090.50;5063900;28;1578;-70
2023/05/23 07:13:05;;;;;;;;;;;;;;;12.05;82.75;102106.50;5061658;28;1214;-71
2023/05/23 07:15:30;;;;;;;;;;;;;;;12.06;84.10;102102.97;5057336;28;1492;-71
2023/05/23 07:17:55;;;;;;;;;;;;;;;12.07;84.14;102101.19;5070816;28;1098;-72
2023/05/23 07:20:20;;;;;;;;;;;;;;;12.04;84.20;102110.00;5067514;28;1221;-71
2023/05/23 07:22:46;;;;;;;;;;;;;;;12.03;84.06;102108.34;5066759;28;2224;-71
2023/05/23 07:25:11;;;;;;;;;;;;;;;12.05;84.46;102106.50;5038814;28;1527;-73
2023/05/23 07:27:37;;;;;;;;;;;;;;;12.01;84.76;102110.25;5062942;28;1259;-71
2023/05/23 07:30:03;;;;;;;;;;;;;;;11.99;85.01;102104.31;5062637;28;1380;-70
2023/05/23 07:32:29;;;;;;;;;;;;;;;11.91;84.92;102103.97;5055939;28;1169;-71
2023/05/23 07:34:54;;;;;;;;;;;;;;;11.82;85.23;102115.00;5068979;28;1159;-71
2023/05/23 07:37:19;;;;;;;;;;;;;;;11.79;85.32;102113.41;5061566;28;1213;-71
2023/05/23 07:39:44;;;;;;;;;;;;;;;11.80;86.62;102116.81;5058402;28;1100;-71
2023/05/23 07:42:10;;;;;;;;;;;;;;;11.81;86.83;102113.28;5063128;28;1288;-70
2023/05/23 07:44:35;;;;;;;;;;;;;;;11.84;86.11;102118.34;5056508;28;1902;-73
2023/05/23 07:47:00;;;;;;;;;;;;;;;11.86;87.00;102129.44;5062384;28;1666;-72
2023/05/23 07:49:25;;;;;;;;;;;;;;;11.87;86.79;102128.50;5059790;28;1554;-71
2023/05/23 07:51:51;;;;;;;;;;;;;;;11.84;87.25;102124.34;5059453;28;1185;-70
2023/05/23 07:54:16;;;;;;;;;;;;;;;11.86;87.24;102132.03;5066118;28;1487;-71
2023/05/23 07:56:42;;;;;;;;;;;;;;;11.84;86.70;102129.56;5065192;28;1216;-71
2023/05/23 07:59:07;;;;;;;;;;;;;;;11.89;86.47;102132.69;5063376;28;1731;-71
2023/05/23 08:01:32;;;;;;;;;;;;;;;11.91;87.73;102129.97;5065479;28;1252;-71
2023/05/23 08:03:58;;;;;;;;;;;;;;;11.92;86.76;102134.25;5043106;28;1973;-72
2023/05/23 08:06:23;;;;;;;;;;;;;;;11.86;86.42;102135.47;5058319;28;1077;-70
2023/05/23 08:08:48;;;;;;;;;;;;;;;11.85;88.38;102135.59;5068512;28;1462;-73
2023/05/23 08:11:14;;;;;;;;;;;;;;;11.81;88.73;102149.69;5046622;28;1671;-73
2023/05/23 08:13:39;;;;;;;;;;;;;;;11.79;86.95;102151.56;5052851;28;1669;-71
2023/05/23 08:16:05;;;;;;;;;;;;;;;11.75;87.84;102152.69;5044219;28;1264;-71
2023/05/23 08:18:30;;;;;;;;;;;;;;;11.77;87.81;102151.66;5066978;28;1217;-70
2023/05/23 08:20:55;;;;;;;;;;;;;;;11.80;88.97;102148.03;5064952;28;950;-70
2023/05/23 08:23:20;;;;;;;;;;;;;;;11.81;87.89;102152.28;5064255;28;1902;-71
2023/05/23 08:25:45;;;;;;;;;;;;;;;11.79;87.41;102156.75;5065089;28;1102;-71
2023/05/23 08:28:11;;;;;;;;;;;;;;;11.72;86.26;102165.91;5051829;28;1304;-71
2023/05/23 08:30:36;;;;;;;;;;;;;;;11.69;85.67;102162.53;5066330;28;1229;-71
2023/05/23 08:33:03;;;;;;;;;;;;;;;11.68;85.30;102153.09;5054708;28;1264;-70
2023/05/23 08:35:33;;;;;;;;;;;;;;;11.74;85.99;102164.03;5066358;28;1174;-71
2023/05/23 08:38:00;;;;;;;;;;;;;;;11.79;84.22;102167.16;5062056;28;1248;-71
2023/05/23 08:40:28;;;;;;;;;;;;;;;11.85;82.38;102167.63;5058413;28;1688;-70
2023/05/23 08:42:53;;;;;;;;;;;;;;;11.99;84.31;102174.53;5068855;28;1909;-71
2023/05/23 08:45:18;;;;;;;;;;;;;;;12.05;81.62;102161.13;5059878;28;1344;-71
2023/05/23 08:47:44;;;;;;;;;;;;;;;12.13;82.27;102166.63;5045776;28;1298;-70
2023/05/23 08:50:11;;;;;;;;;;;;;;;12.17;81.98;102162.91;5046046;28;1223;-70
2023/05/23 08:52:41;;;;;;;;;;;;;;;12.25;80.49;102164.16;5056642;28;1162;-70
2023/05/23 08:55:08;;;;;;;;;;;;;;;12.22;78.53;102171.22;5058101;28;1110;-71
2023/05/23 08:57:33;;;;;;;;;;;;;;;12.28;79.17;102169.16;5061313;28;1248;-72
2023/05/23 08:59:59;;;;;;;;;;;;;;;12.34;78.44;102169.56;5066716;28;1162;-71
2023/05/23 09:02:25;;;;;;;;;;;;;;;12.36;79.77;102177.25;5061623;28;1906;-71
2023/05/23 09:04:52;;;;;;;;;;;;;;;12.40;79.38;102186.53;5064964;28;1141;-72
2023/05/23 09:07:17;;;;;;;;;;;;;;;12.51;79.39;102181.44;5060491;28;1325;-70
2023/05/23 09:09:43;;;;;;;;;;;;;;;12.49;77.29;102191.09;5055478;28;1236;-71
2023/05/23 09:12:09;;;;;;;;;;;;;;;12.45;77.39;102197.47;5062178;28;1525;-71
2023/05/23 09:14:36;;;;;;;;;;;;;;;12.45;77.23;102202.66;5043278;28;1234;-71
2023/05/23 09:17:01;;;;;;;;;;;;;;;12.44;78.10;102191.44;5060323;28;1161;-70
2023/05/23 09:19:27;;;;;;;;;;;;;;;12.49;77.92;102194.53;5057424;28;1633;-71
2023/05/23 09:21:52;;;;;;;;;;;;;;;12.62;77.46;102184.13;5063577;28;1565;-73
2023/05/23 09:24:18;;;;;;;;;;;;;;;12.72;75.88;102194.72;5049399;28;1965;-74
2023/05/23 09:26:45;;;;;;;;;;;;;;;12.72;76.16;102195.56;5043943;28;1558;-72
2023/05/23 09:29:10;;;;;;;;;;;;;;;12.68;75.37;102194.13;5054383;28;1751;-73
2023/05/23 09:31:35;;;;;;;;;;;;;;;12.72;75.01;102200.78;5042576;28;1837;-71
2023/05/23 09:34:01;;;;;;;;;;;;;;;12.76;76.30;102191.00;5059481;28;1208;-72
2023/05/23 09:36:31;;;;;;;;;;;;;;;12.80;73.75;102191.63;5065731;28;1017;-71
2023/05/23 09:38:56;;;;;;;;;;;;;;;12.90;74.41;102197.81;5068890;28;1276;-71
2023/05/23 09:41:22;;;;;;;;;;;;;;;13.02;73.22;102191.78;5067935;28;1518;-71
2023/05/23 09:43:51;;;;;;;;;;;;;;;13.07;70.23;102194.06;5058839;28;1902;-70
2023/05/23 09:46:16;;;;;;;;;;;;;;;13.08;71.92;102201.78;5062359;28;1380;-71
2023/05/23 09:48:48;;;;;;;;;;;;;;;13.14;70.20;102195.31;5064075;28;1698;-71
2023/05/23 09:51:13;;;;;;;;;;;;;;;13.09;70.63;102203.44;5062423;28;1255;-71
2023/05/23 09:53:39;;;;;;;;;;;;;;;13.10;70.22;102201.66;5069552;28;1423;-71
2023/05/23 09:56:05;;;;;;;;;;;;;;;13.07;69.09;102205.31;5070267;28;1424;-72
2023/05/23 09:58:31;;;;;;;;;;;;;;;13.11;68.50;102196.34;5068388;28;1248;-72
2023/05/23 10:01:01;;;;;;;;;;;;;;;13.14;68.77;102195.31;5070584;28;1527;-72
2023/05/23 10:03:34;;;;;;;;;;;;;;;13.29;71.36;102205.47;5068103;28;1968;-70
2023/05/23 10:06:01;;;;;;;;;;;;;;;13.51;71.80;102203.97;5069807;28;1401;-70
2023/05/23 10:08:35;;;;;;;;;;;;;;;13.69;69.97;102197.41;5047178;28;2653;-72
2023/05/23 10:11:13;;;;;;;;;;;;;;;13.74;69.06;102200.50;5062831;28;1945;-70
2023/05/23 10:13:45;;;;;;;;;;;;;;;13.80;67.58;102200.06;5062381;28;2450;-70
2023/05/23 10:16:14;;;;;;;;;;;;;;;13.77;67.46;102200.31;5064328;28;1984;-72
2023/05/23 10:18:42;;;;;;;;;;;;;;;13.90;66.96;102205.44;5049401;28;2040;-71
2023/05/23 10:21:11;;;;;;;;;;;;;;;14.08;67.97;102208.47;5061806;28;1891;-72
2023/05/23 10:23:37;;;;;;;;;;;;;;;14.26;67.73;102207.09;5067793;28;1898;-71
2023/05/23 10:26:03;;;;;;;;;;;;;;;14.28;65.63;102215.66;5062950;28;1263;-71
2023/05/23 10:28:29;;;;;;;;;;;;;;;14.19;65.28;102216.31;5049902;28;1558;-72
2023/05/23 10:30:54;;;;;;;;;;;;;;;14.02;65.53;102208.94;5069488;28;1075;-72
2023/05/23 10:33:21;;;;;;;;;;;;;;;13.98;66.36;102212.69;5069805;28;1169;-73
2023/05/23 10:36:00;;;;;;;;;;;;;;;14.00;66.71;102216.03;5057567;28;1266;-72
2023/05/23 10:38:30;;;;;;;;;;;;;;;13.95;65.29;102212.94;5066407;28;2583;-71
2023/05/23 10:41:15;;;;;;;;;;;;;;;14.01;66.02;102217.69;5061372;28;2433;-71
2023/05/23 10:43:47;;;;;;;;;;;;;;;14.15;65.43;102220.09;5044742;28;2113;-72
2023/05/23 10:46:13;;;;;;;;;;;;;;;14.25;65.88;102210.66;5061509;28;2173;-71
2023/05/23 10:48:42;;;;;;;;;;;;;;;14.34;64.21;102215.19;5061017;28;2150;-70
2023/05/23 10:51:08;;;;;;;;;;;;;;;14.40;65.38;102218.28;5061493;28;2205;-72
2023/05/23 10:53:37;;;;;;;;;;;;;;;14.55;64.08;102212.75;5047203;28;1372;-73
2023/05/23 10:56:07;;;;;;;;;;;;;;;14.67;64.47;102204.91;5060694;28;1456;-71
2023/05/23 10:58:32;;;;;;;;;;;;;;;14.79;61.80;102210.00;5066292;28;2479;-73
2023/05/23 11:01:05;;;;;;;;;;;;;;;14.88;62.07;102218.94;5068289;28;1657;-72
2023/05/23 11:03:34;;;;;;;;;;;;;;;14.69;62.16;102216.91;5056406;28;1905;-73
2023/05/23 11:06:00;;;;;;;;;;;;;;;14.60;63.28;102221.06;5067840;28;1503;-71
2023/05/23 11:08:26;;;;;;;;;;;;;;;14.60;63.92;102217.63;5067323;28;1300;-72
2023/05/23 11:10:51;;;;;;;;;;;;;;;14.60;63.91;102215.00;5067967;28;1228;-73
2023/05/23 11:13:17;;;;;;;;;;;;;;;14.63;63.87;102209.56;5069227;28;1135;-73
2023/05/23 11:15:44;;;;;;;;;;;;;;;14.70;62.70;102221.19;5071528;28;1107;-72
2023/05/23 11:18:18;;;;;;;;;;;;;;;14.74;61.53;102211.34;5072185;28;1192;-71
2023/05/23 11:20:43;;;;;;;;;;;;;;;14.65;61.60;102218.09;5048863;28;1146;-72
2023/05/23 11:23:11;;;;;;;;;;;;;;;14.39;59.39;102212.22;5070261;28;1940;-71
2023/05/23 11:25:40;;;;;;;;;;;;;;;14.34;61.04;102215.19;5063394;28;1835;-71
2023/05/23 11:28:06;;;;;;;;;;;;;;;14.51;63.21;102211.34;5055508;28;1108;-72
2023/05/23 11:30:32;;;;;;;;;;;;;;;14.78;61.78;102208.34;5046986;28;1419;-71
2023/05/23 11:32:57;;;;;;;;;;;;;;;14.78;62.29;102224.03;5066975;28;1605;-73
2023/05/23 11:35:23;;;;;;;;;;;;;;;14.73;62.86;102230.56;5067375;28;1056;-71
2023/05/23 11:37:48;;;;;;;;;;;;;;;14.76;63.22;102215.50;5069640;28;1040;-71
2023/05/23 11:40:33;;;;;;;;;;;;;;;14.76;60.82;102225.13;5063978;28;1265;-72
2023/05/23 11:42:59;;;;;;;;;;;;;;;14.85;62.43;102229.59;5059669;28;1997;-72
2023/05/23 11:45:26;;;;;;;;;;;;;;;14.92;61.66;102225.59;5050170;28;1184;-71
2023/05/23 11:47:51;;;;;;;;;;;;;;;15.04;60.33;102229.03;5066473;28;990;-72
2023/05/23 11:50:19;;;;;;;;;;;;;;;15.16;61.05;102227.25;5061897;28;1154;-72
2023/05/23 11:52:50;;;;;;;;;;;;;;;15.16;61.64;102235.91;5067687;28;1115;-71
2023/05/23 11:55:15;;;;;;;;;;;;;;;15.09;62.23;102239.97;5068319;28;1193;-72
2023/05/23 11:57:40;;;;;;;;;;;;;;;15.09;59.72;102232.13;5049444;28;1289;-72
2023/05/23 12:00:07;;;;;;;;;;;;;;;14.94;58.58;102238.53;5049057;28;1201;-72
2023/05/23 12:02:37;;;;;;;;;;;;;;;14.83;60.49;102228.91;5059870;28;1902;-71
2023/05/23 12:05:05;;;;;;;;;;;;;;;14.86;58.53;102241.75;5067027;28;1388;-72
2023/05/23 12:07:32;;;;;;;;;;;;;;;14.68;57.72;102246.59;5064173;28;1276;-72
2023/05/23 12:09:57;;;;;;;;;;;;;;;14.70;60.08;102242.09;5055296;28;1481;-72
2023/05/23 12:12:22;;;;;;;;;;;;;;;14.69;61.53;102245.66;5059433;28;1115;-70
2023/05/23 12:14:47;;;;;;;;;;;;;;;14.53;60.66;102242.53;5059140;28;1234;-72
2023/05/23 12:17:13;;;;;;;;;;;;;;;14.51;60.27;102252.28;5046765;28;1256;-70
2023/05/23 12:19:38;;;;;;;;;;;;;;;14.54;60.98;102241.59;5065684;28;1025;-73
2023/05/23 12:22:09;;;;;;;;;;;;;;;14.70;60.42;102247.31;5062285;28;1292;-71
2023/05/23 12:24:35;;;;;;;;;;;;;;;14.76;59.02;102254.66;5053913;28;1898;-72
2023/05/23 12:27:02;;;;;;;;;;;;;;;14.69;60.30;102240.44;5065587;28;1655;-70
2023/05/23 12:29:29;;;;;;;;;;;;;;;14.78;60.90;102249.31;5043571;28;1283;-71
2023/05/23 12:31:54;;;;;;;;;;;;;;;14.91;60.43;102254.44;5055634;28;1810;-71
2023/05/23 12:34:20;;;;;;;;;;;;;;;14.91;59.92;102254.44;5066912;28;1001;-71
2023/05/23 12:36:47;;;;;;;;;;;;;;;15.00;58.38;102261.56;5059472;28;1221;-72
2023/05/23 12:39:13;;;;;;;;;;;;;;;14.83;56.78;102261.09;5044040;28;1243;-72